createdAt,value
2024-03-13T00:01:52.678Z,10.27
2024-03-13T00:04:20.641Z,10.27
2024-03-13T00:06:52.323Z,9.70
2024-03-13T00:09:21.460Z,9.67
2024-03-13T00:11:48.408Z,10.40
2024-03-13T00:14:17.673Z,10.63
2024-03-13T00:16:45.487Z,10.57
2024-03-13T00:19:12.256Z,9.70
2024-03-13T00:21:40.225Z,9.37
2024-03-13T00:24:07.066Z,8.27
2024-03-13T00:26:37.772Z,9.43
2024-03-13T00:29:05.555Z,9.10
2024-03-13T00:31:32.594Z,9.80
2024-03-13T00:33:59.453Z,9.57
2024-03-13T00:36:26.186Z,9.70
2024-03-13T00:38:52.909Z,10.33
2024-03-13T00:41:20.401Z,9.47
2024-03-13T00:43:47.178Z,10.23
2024-03-13T00:46:14.214Z,9.77
2024-03-13T00:48:41.117Z,10.50
2024-03-13T00:51:10.316Z,10.27
2024-03-13T00:53:39.245Z,10.53
2024-03-13T00:56:06.599Z,10.20
2024-03-13T00:58:35.301Z,11.17
2024-03-13T01:01:02.175Z,11.23
2024-03-13T01:03:29.488Z,11.83
2024-03-13T01:05:57.224Z,13.07
2024-03-13T01:08:25.755Z,13.27
2024-03-13T01:10:55.574Z,12.07
2024-03-13T01:13:22.968Z,13.10
2024-03-13T01:15:49.890Z,13.37
2024-03-13T01:18:16.699Z,14.23
2024-03-13T01:20:43.686Z,14.73
2024-03-13T01:23:12.842Z,14.83
2024-03-13T01:25:42.134Z,14.53
2024-03-13T01:28:09.065Z,15.63
2024-03-13T01:30:35.712Z,15.77
2024-03-13T01:33:02.638Z,16.33
2024-03-13T01:35:29.392Z,16.13
2024-03-13T01:38:03.048Z,17.13
2024-03-13T01:40:48.686Z,16.77
2024-03-13T01:43:36.028Z,16.90
2024-03-13T01:46:38.479Z,16.83
2024-03-13T01:49:38.197Z,16.37
2024-03-13T01:52:30.053Z,15.93
2024-03-13T01:55:08.490Z,16.37
2024-03-13T01:57:47.223Z,16.33
2024-03-13T02:00:33.701Z,16.93
2024-03-13T02:03:00.601Z,15.80
2024-03-13T02:05:27.490Z,16.10
2024-03-13T02:07:57.290Z,12.70
2024-03-13T02:10:24.088Z,12.57
2024-03-13T02:13:07.410Z,12.87
2024-03-13T02:15:36.002Z,13.00
2024-03-13T02:18:05.982Z,11.70
2024-03-13T02:20:35.679Z,11.17
2024-03-13T02:23:06.042Z,10.23
2024-03-13T02:25:39.025Z,11.57
2024-03-13T02:28:05.891Z,10.80
2024-03-13T02:30:33.084Z,11.00
2024-03-13T02:32:59.775Z,11.80
2024-03-13T02:35:26.510Z,11.30
2024-03-13T02:37:53.303Z,11.37
2024-03-13T02:40:20.076Z,11.67
2024-03-13T02:42:47.910Z,12.40
2024-03-13T02:45:15.236Z,13.03
2024-03-13T02:47:47.812Z,13.17
2024-03-13T02:50:15.081Z,12.87
2024-03-13T02:52:42.000Z,12.70
2024-03-13T02:55:11.486Z,12.10
2024-03-13T02:57:38.318Z,12.07
2024-03-13T03:00:07.592Z,10.67
2024-03-13T03:02:36.022Z,10.80
2024-03-13T03:05:04.525Z,10.23
2024-03-13T03:07:35.041Z,10.30
2024-03-13T03:10:02.589Z,10.70
2024-03-13T03:12:29.732Z,9.93
2024-03-13T03:14:56.473Z,10.20
2024-03-13T03:17:23.821Z,10.33
2024-03-13T03:20:00.842Z,9.10
2024-03-13T03:22:27.591Z,9.03
2024-03-13T03:24:56.490Z,8.60
2024-03-13T03:27:24.361Z,9.17
2024-03-13T03:29:53.122Z,8.27
2024-03-13T03:32:23.070Z,9.13
2024-03-13T03:34:50.335Z,8.90
2024-03-13T03:37:17.162Z,8.03
2024-03-13T03:39:44.041Z,8.53
2024-03-13T03:42:11.171Z,6.80
2024-03-13T03:44:38.116Z,7.93
2024-03-13T03:47:04.888Z,7.70
2024-03-13T03:49:31.635Z,7.73
2024-03-13T03:51:58.622Z,7.20
2024-03-13T03:54:25.368Z,6.70
2024-03-13T03:56:53.370Z,7.47
2024-03-13T03:59:20.241Z,7.07
2024-03-13T04:01:47.133Z,7.37
2024-03-13T04:04:16.842Z,6.73
2024-03-13T04:06:44.851Z,7.50
2024-03-13T04:09:17.417Z,7.03
2024-03-13T04:11:44.502Z,7.57
2024-03-13T04:14:14.566Z,8.03
2024-03-13T04:16:45.095Z,7.90
2024-03-13T04:19:15.493Z,7.93
2024-03-13T04:21:43.897Z,7.97
2024-03-13T04:24:10.811Z,7.87
2024-03-13T04:26:41.013Z,7.73
2024-03-13T04:29:08.043Z,7.70
2024-03-13T04:31:36.960Z,7.73
2024-03-13T04:34:04.000Z,7.93
2024-03-13T04:36:33.123Z,7.57
2024-03-13T04:38:59.835Z,7.07
2024-03-13T04:41:26.573Z,6.63
2024-03-13T04:43:56.483Z,7.03
2024-03-13T04:46:23.326Z,7.20
2024-03-13T04:48:50.181Z,7.03
2024-03-13T04:51:18.242Z,5.73
2024-03-13T04:53:45.082Z,6.53
2024-03-13T04:56:15.207Z,5.77
2024-03-13T04:58:42.550Z,5.93
2024-03-13T05:01:18.265Z,6.33
2024-03-13T05:03:45.227Z,6.10
2024-03-13T05:06:12.292Z,5.00
2024-03-13T05:08:39.961Z,5.87
2024-03-13T05:11:10.324Z,5.37
2024-03-13T05:13:37.542Z,5.33
2024-03-13T05:16:06.543Z,5.80
2024-03-13T05:18:35.712Z,5.70
2024-03-13T05:21:02.543Z,5.57
2024-03-13T05:23:29.288Z,5.93
2024-03-13T05:25:58.018Z,5.63
2024-03-13T05:28:26.314Z,6.33
2024-03-13T05:30:53.053Z,5.57
2024-03-13T05:33:19.920Z,5.10
2024-03-13T05:35:46.780Z,6.03
2024-03-13T05:38:13.573Z,6.53
2024-03-13T05:40:40.374Z,6.70
2024-03-13T05:43:07.143Z,5.73
2024-03-13T05:45:36.265Z,6.53
2024-03-13T05:48:03.790Z,6.90
2024-03-13T05:50:30.741Z,6.00
2024-03-13T05:52:57.421Z,7.23
2024-03-13T05:55:25.552Z,7.33
2024-03-13T05:57:52.547Z,7.03
2024-03-13T06:00:20.339Z,6.73
2024-03-13T06:02:49.494Z,7.50
2024-03-13T06:05:18.145Z,6.30
2024-03-13T06:07:48.047Z,7.30
2024-03-13T06:10:15.536Z,7.10
2024-03-13T06:12:42.404Z,7.67
2024-03-13T06:15:13.505Z,7.63
2024-03-13T06:17:40.215Z,8.93
2024-03-13T06:20:14.439Z,7.77
2024-03-13T06:22:42.303Z,9.20
2024-03-13T06:25:09.995Z,9.90
2024-03-13T06:27:37.582Z,10.00
2024-03-13T06:30:07.393Z,10.73
2024-03-13T06:32:34.130Z,11.07
2024-03-13T06:35:05.652Z,12.13
2024-03-13T06:37:36.275Z,12.90
2024-03-13T06:40:05.322Z,12.83
2024-03-13T06:42:32.826Z,13.87
2024-03-13T06:44:59.808Z,14.83
2024-03-13T06:47:26.808Z,14.83
2024-03-13T06:49:53.664Z,16.43
2024-03-13T06:52:20.531Z,17.03
2024-03-13T06:54:47.452Z,16.80
2024-03-13T06:57:14.301Z,14.90
2024-03-13T06:59:43.241Z,16.47
2024-03-13T07:02:15.173Z,15.03
2024-03-13T07:04:45.177Z,14.90
2024-03-13T07:07:12.101Z,15.10
2024-03-13T07:09:38.999Z,14.40
2024-03-13T07:12:06.021Z,14.03
2024-03-13T07:14:32.751Z,12.90
2024-03-13T07:16:59.794Z,13.23
2024-03-13T07:19:32.414Z,11.70
2024-03-13T07:21:59.832Z,10.63
2024-03-13T07:24:26.584Z,11.53
2024-03-13T07:26:53.970Z,10.50
2024-03-13T07:29:20.672Z,9.30
2024-03-13T07:31:47.352Z,9.57
2024-03-13T07:34:14.945Z,8.87
2024-03-13T07:36:41.881Z,9.17
2024-03-13T07:39:12.419Z,8.83
2024-03-13T07:41:42.549Z,8.67
2024-03-13T07:44:09.534Z,8.80
2024-03-13T07:46:36.493Z,7.60
2024-03-13T07:49:06.361Z,8.17
2024-03-13T07:51:33.371Z,7.87
2024-03-13T07:54:00.139Z,7.83
2024-03-13T07:56:29.510Z,6.87
2024-03-13T07:58:56.295Z,7.00
2024-03-13T08:01:23.931Z,6.77
2024-03-13T08:03:50.976Z,6.33
2024-03-13T09:06:44.325Z,16.87
2024-03-13T09:09:11.185Z,16.33
2024-03-13T09:11:39.087Z,17.27
2024-03-13T09:14:08.847Z,18.70
2024-03-13T09:16:37.110Z,17.33
2024-03-13T09:19:05.268Z,16.77
2024-03-13T09:21:32.252Z,17.13
2024-03-13T09:23:59.489Z,17.23
2024-03-13T09:26:26.842Z,17.50
2024-03-13T09:28:56.680Z,16.97
2024-03-13T09:31:25.287Z,16.60
2024-03-13T09:33:52.183Z,16.30
2024-03-13T09:36:21.838Z,16.50
2024-03-13T09:38:48.949Z,16.67
2024-03-13T09:41:15.773Z,17.00
2024-03-13T09:43:42.520Z,17.03
2024-03-13T09:46:10.996Z,15.23
2024-03-13T09:48:40.743Z,15.17
2024-03-13T09:51:10.814Z,15.90
2024-03-13T09:53:41.919Z,14.30
2024-03-13T09:56:14.861Z,14.87
2024-03-13T09:58:47.121Z,14.90
2024-03-13T10:01:27.419Z,15.47
2024-03-13T10:04:03.376Z,14.77
2024-03-13T10:06:34.681Z,15.57
2024-03-13T10:09:04.897Z,15.33
2024-03-13T10:11:33.976Z,15.00
2024-03-13T10:14:03.517Z,15.43
2024-03-13T10:16:34.428Z,15.40
2024-03-13T10:19:03.923Z,14.97
2024-03-13T10:21:31.710Z,15.03
2024-03-13T10:24:00.238Z,14.60
2024-03-13T10:26:38.420Z,14.80
2024-03-13T10:29:07.514Z,14.60
2024-03-13T10:31:36.055Z,14.87
2024-03-13T10:34:03.469Z,15.37
2024-03-13T10:36:30.624Z,16.30
2024-03-13T10:38:58.043Z,15.67
2024-03-13T10:41:24.766Z,14.80
2024-03-13T10:43:52.602Z,14.93
2024-03-13T10:46:19.281Z,14.63
2024-03-13T10:48:46.110Z,14.40
2024-03-13T10:51:14.804Z,15.53
2024-03-13T10:53:44.843Z,15.10
2024-03-13T10:56:15.946Z,14.73
2024-03-13T10:58:50.688Z,15.00
2024-03-13T11:01:19.229Z,15.73
2024-03-13T11:03:47.905Z,14.20
2024-03-13T11:06:16.547Z,14.63
2024-03-13T11:08:43.690Z,14.63
2024-03-13T11:11:20.752Z,14.63
2024-03-13T11:13:55.609Z,13.60
2024-03-13T11:16:26.927Z,13.23
2024-03-13T11:18:56.671Z,14.63
2024-03-13T11:21:58.727Z,13.43
2024-03-13T11:24:27.355Z,12.97
2024-03-13T11:26:59.120Z,12.33
2024-03-13T11:29:37.463Z,11.87
2024-03-13T11:32:09.944Z,10.90
2024-03-13T11:34:39.109Z,10.33
2024-03-13T11:37:08.532Z,9.70
2024-03-13T11:39:36.049Z,10.27
2024-03-13T11:42:18.706Z,10.50
2024-03-13T11:44:51.989Z,10.27
2024-03-13T11:47:24.198Z,11.20
2024-03-13T11:50:00.898Z,10.53
2024-03-13T11:52:27.744Z,10.60
2024-03-13T11:54:57.663Z,10.23
2024-03-13T11:57:25.771Z,10.20
2024-03-13T11:59:54.602Z,10.30
2024-03-13T12:02:31.493Z,8.97
2024-03-13T12:05:03.474Z,8.73
2024-03-13T12:07:35.810Z,8.27
2024-03-13T12:10:03.642Z,8.50
2024-03-13T12:12:30.457Z,7.53
2024-03-13T12:14:59.543Z,7.13
2024-03-13T12:17:29.474Z,7.83
2024-03-13T12:19:57.512Z,7.60
2024-03-13T12:22:27.861Z,7.63
2024-03-13T12:24:54.716Z,7.50
2024-03-13T12:27:21.828Z,7.40
2024-03-13T12:29:49.869Z,7.87
2024-03-13T12:32:16.761Z,8.83
2024-03-13T12:34:46.314Z,9.30
2024-03-13T12:37:17.267Z,8.93
2024-03-13T12:39:44.165Z,8.63
2024-03-13T12:42:11.418Z,8.67
2024-03-13T12:44:38.292Z,8.47
2024-03-13T12:47:05.813Z,9.37
2024-03-13T12:49:33.222Z,8.93
2024-03-13T12:52:07.837Z,6.27
2024-03-13T12:54:36.770Z,6.93
2024-03-13T12:57:06.051Z,6.70
2024-03-13T12:59:32.961Z,5.60
2024-03-13T13:02:00.141Z,5.03
2024-03-13T13:04:27.189Z,3.97
2024-03-13T13:06:56.839Z,4.37
2024-03-13T13:09:23.625Z,3.90
2024-03-13T13:11:50.770Z,2.83
2024-03-13T13:14:17.567Z,3.30
2024-03-13T13:16:47.346Z,3.13
2024-03-13T13:19:14.399Z,2.90
2024-03-13T13:21:41.178Z,3.63
2024-03-13T13:24:07.948Z,3.60
2024-03-13T13:26:34.816Z,3.70
2024-03-13T13:31:32.051Z,4.87
2024-03-13T13:33:58.953Z,5.80
2024-03-13T13:36:25.726Z,6.70
2024-03-13T13:38:52.578Z,7.20
2024-03-13T13:41:21.538Z,7.70
2024-03-13T13:43:48.586Z,8.80
2024-03-13T13:46:16.506Z,9.00
2024-03-13T13:48:43.626Z,10.00
2024-03-13T13:51:11.550Z,12.20
2024-03-13T13:53:38.340Z,11.77
2024-03-13T13:56:05.906Z,12.50
2024-03-13T13:58:32.727Z,12.53
2024-03-13T14:00:59.552Z,13.37
2024-03-13T14:03:26.479Z,11.57
2024-03-13T14:05:53.542Z,10.70
2024-03-13T14:08:21.372Z,10.13
2024-03-13T14:10:49.950Z,11.47
2024-03-13T14:13:16.714Z,9.97
2024-03-13T14:15:43.489Z,8.93
2024-03-13T14:18:15.008Z,8.83
2024-03-13T14:20:43.592Z,8.73
2024-03-13T14:23:12.333Z,8.20
2024-03-13T14:25:39.173Z,7.77
2024-03-13T14:28:11.127Z,7.60
2024-03-13T14:30:40.926Z,7.83
2024-03-13T14:33:07.856Z,7.10
2024-03-13T14:35:34.683Z,6.90
2024-03-13T14:38:01.465Z,7.03
2024-03-13T14:40:30.267Z,6.53
2024-03-13T14:42:57.415Z,5.83
2024-03-13T14:45:24.203Z,5.60
2024-03-13T14:47:52.165Z,5.33
2024-03-13T14:50:20.861Z,5.70
2024-03-13T14:53:02.735Z,5.67
2024-03-13T14:55:33.345Z,5.40
2024-03-13T14:58:00.655Z,5.90
2024-03-13T15:00:28.345Z,5.60
2024-03-13T15:02:55.981Z,5.90
2024-03-13T15:05:25.382Z,5.90
2024-03-13T15:07:55.944Z,6.30
2024-03-13T15:10:26.396Z,6.30
2024-03-13T15:12:53.379Z,6.10
2024-03-13T15:15:20.792Z,6.33
2024-03-13T15:17:51.707Z,6.07
2024-03-13T15:20:19.397Z,6.27
2024-03-13T15:22:49.059Z,6.97
2024-03-13T15:25:16.689Z,6.07
2024-03-13T15:27:45.576Z,6.30
2024-03-13T15:30:16.783Z,6.03
2024-03-13T15:32:44.194Z,5.70
2024-03-13T15:35:11.392Z,6.20
2024-03-13T15:37:38.071Z,5.20
2024-03-13T15:40:07.962Z,4.73
2024-03-13T15:42:38.905Z,5.67
2024-03-13T15:45:06.249Z,4.60
2024-03-13T15:47:43.141Z,4.23
2024-03-13T15:50:20.256Z,3.93
2024-03-13T15:52:55.108Z,3.90
2024-03-13T15:55:22.405Z,3.53
2024-03-13T15:57:49.153Z,4.10
2024-03-13T16:00:19.610Z,3.67
2024-03-13T16:02:52.717Z,3.97
2024-03-13T16:05:20.942Z,3.90
2024-03-13T16:08:06.151Z,3.43
2024-03-13T16:10:33.143Z,3.50
2024-03-13T16:13:02.691Z,3.77
2024-03-13T16:15:29.438Z,3.63
2024-03-13T16:17:59.571Z,3.33
2024-03-13T16:20:26.726Z,3.30
2024-03-13T16:22:56.052Z,3.43
2024-03-13T16:25:23.034Z,3.10
2024-03-13T16:27:49.817Z,3.17
2024-03-13T16:30:20.647Z,3.10
2024-03-13T16:32:48.309Z,3.00
2024-03-13T16:35:18.158Z,2.93
2024-03-13T16:37:45.994Z,2.50
2024-03-13T16:40:18.480Z,2.40
2024-03-13T16:42:45.618Z,2.50
2024-03-13T16:45:12.545Z,2.10
2024-03-13T16:47:41.140Z,2.47
2024-03-13T16:50:09.419Z,2.23
2024-03-13T16:52:36.189Z,2.03
2024-03-13T16:55:03.079Z,2.13
2024-03-13T16:57:29.798Z,2.10
2024-03-13T16:59:58.469Z,2.10
2024-03-13T17:02:27.556Z,2.00
2024-03-13T17:04:54.323Z,2.40
2024-03-13T17:07:21.181Z,2.70
2024-03-13T17:09:50.310Z,2.27
2024-03-13T17:12:17.147Z,2.50
2024-03-13T17:14:44.031Z,2.10
2024-03-13T17:17:10.872Z,2.60
2024-03-13T17:19:37.819Z,2.30
2024-03-13T17:22:05.510Z,2.00
2024-03-13T17:24:32.549Z,2.10
2024-03-13T17:27:03.311Z,2.03
2024-03-13T17:29:32.372Z,2.27
2024-03-13T17:32:00.451Z,2.20
2024-03-13T17:34:27.172Z,2.70
2024-03-13T17:36:56.090Z,1.93
2024-03-13T17:39:22.897Z,2.03
2024-03-13T17:41:50.075Z,1.97
2024-03-13T17:44:19.020Z,1.90
2024-03-13T17:46:46.385Z,1.80
2024-03-13T17:49:13.524Z,1.80
2024-03-13T17:51:40.590Z,1.70
2024-03-13T17:54:08.188Z,1.90
2024-03-13T17:56:35.080Z,1.70
2024-03-13T18:01:34.080Z,1.80
2024-03-13T18:04:00.922Z,1.60
2024-03-13T18:06:27.841Z,1.60
2024-03-13T18:08:54.714Z,1.47
2024-03-13T18:11:21.605Z,1.63
2024-03-13T18:13:48.557Z,1.40
2024-03-13T18:16:15.310Z,1.93
2024-03-13T18:18:42.143Z,1.53
2024-03-13T18:21:09.422Z,2.00
2024-03-13T18:23:36.680Z,2.00
2024-03-13T18:26:03.509Z,1.93
2024-03-13T18:28:30.225Z,2.00
2024-03-13T18:30:56.988Z,2.00
2024-03-13T18:33:26.944Z,2.47
2024-03-13T18:35:53.719Z,2.33
2024-03-13T18:38:20.667Z,2.35
2024-03-13T18:40:47.478Z,2.40
2024-03-13T18:43:14.309Z,2.33
2024-03-13T18:45:41.139Z,2.43
2024-03-13T18:48:09.467Z,2.40
2024-03-13T18:50:36.295Z,2.80
2024-03-13T18:53:03.353Z,2.77
2024-03-13T18:55:31.753Z,2.93
2024-03-13T18:57:58.709Z,2.63
2024-03-13T19:00:26.734Z,2.77
2024-03-13T19:02:56.102Z,2.93
2024-03-13T19:05:25.327Z,2.87
2024-03-13T19:07:53.420Z,2.60
2024-03-13T19:10:25.007Z,2.73
2024-03-13T19:12:58.341Z,3.07
2024-03-13T19:15:28.721Z,2.87
2024-03-13T19:17:58.011Z,3.47
2024-03-13T19:20:24.888Z,3.33
2024-03-13T19:22:52.264Z,3.27
2024-03-13T19:25:19.036Z,3.60
2024-03-13T19:27:45.750Z,3.30
2024-03-13T19:30:12.725Z,3.00
2024-03-13T19:32:39.522Z,4.10
2024-03-13T19:35:06.437Z,3.77
2024-03-13T19:37:35.585Z,3.70
2024-03-13T19:40:06.708Z,3.60
2024-03-13T19:42:35.457Z,4.10
2024-03-13T19:45:05.239Z,3.77
2024-03-13T19:47:33.772Z,4.30
2024-03-13T19:50:05.419Z,3.73
2024-03-13T19:52:35.757Z,3.47
2024-03-13T19:55:02.570Z,4.13
2024-03-13T19:57:29.670Z,4.13
2024-03-13T19:59:56.455Z,4.43
2024-03-13T20:02:23.261Z,4.70
2024-03-13T20:04:50.165Z,4.40
2024-03-13T20:07:16.912Z,4.33
2024-03-13T20:09:43.960Z,4.67
2024-03-13T20:12:10.910Z,5.13
2024-03-13T20:14:37.802Z,5.00
2024-03-13T20:17:04.739Z,5.03
2024-03-13T20:19:31.737Z,5.20
2024-03-13T20:22:00.683Z,5.23
2024-03-13T20:24:27.571Z,5.23
2024-03-13T20:26:54.532Z,5.40
2024-03-13T20:29:30.120Z,5.10
2024-03-13T20:34:47.700Z,5.07
2024-03-13T20:34:58.456Z,5.27
2024-03-13T20:37:17.910Z,5.83
2024-03-13T20:39:45.003Z,6.00
2024-03-13T20:42:11.915Z,5.30
2024-03-13T20:44:40.818Z,5.60
2024-03-13T20:47:07.810Z,4.87
2024-03-13T20:49:35.803Z,5.13
2024-03-13T20:52:02.799Z,5.73
2024-03-13T20:54:30.402Z,5.40
2024-03-13T20:57:00.800Z,5.77
2024-03-13T20:59:33.638Z,5.10
2024-03-13T21:02:18.667Z,5.50
2024-03-13T21:17:26.530Z,5.07
2024-03-13T21:18:42.033Z,5.30
2024-03-13T21:21:22.842Z,5.10
2024-03-13T21:23:53.770Z,5.13
2024-03-13T21:26:25.579Z,4.60
2024-03-13T21:31:17.131Z,4.60
2024-03-13T21:31:42.864Z,5.23
2024-03-13T21:34:17.721Z,5.10
2024-03-13T21:41:01.354Z,4.73
2024-03-13T21:48:35.742Z,5.23
2024-03-13T22:01:52.362Z,4.43
2024-03-13T22:15:07.773Z,4.70
2024-03-13T22:17:34.819Z,4.47
2024-03-13T22:20:01.661Z,4.93
2024-03-13T22:22:28.559Z,4.37
2024-03-13T22:24:55.430Z,4.17
2024-03-13T22:27:22.865Z,4.50
2024-03-13T22:29:54.578Z,4.43
2024-03-13T22:32:22.762Z,4.67
2024-03-13T22:34:49.451Z,4.50
2024-03-13T22:37:16.257Z,4.07
2024-03-13T22:39:43.099Z,4.07
2024-03-13T22:42:11.232Z,4.40
2024-03-13T22:44:38.029Z,4.27
2024-03-13T22:47:06.415Z,4.17
2024-03-13T22:49:33.555Z,3.97
2024-03-13T22:52:00.312Z,4.40
2024-03-13T22:54:36.554Z,4.17
2024-03-13T22:57:04.209Z,3.83
2024-03-13T22:59:31.288Z,4.00
2024-03-13T23:01:58.351Z,4.37
2024-03-13T23:04:25.935Z,4.40
2024-03-13T23:06:52.913Z,4.20
2024-03-13T23:09:20.076Z,4.07
2024-03-13T23:11:46.974Z,4.10
2024-03-13T23:14:15.384Z,3.87
2024-03-13T23:16:42.428Z,3.83
2024-03-13T23:19:09.226Z,4.00
2024-03-13T23:21:38.163Z,3.60
2024-03-13T23:24:05.347Z,3.90
2024-03-13T23:26:34.217Z,4.00
2024-03-13T23:29:00.973Z,4.20
2024-03-13T23:31:27.816Z,3.37
2024-03-13T23:33:54.612Z,4.00
2024-03-13T23:36:22.349Z,3.97
2024-03-13T23:38:49.485Z,4.10
2024-03-13T23:41:17.247Z,3.60
2024-03-13T23:43:44.933Z,3.63
2024-03-13T23:46:15.484Z,3.60
2024-03-13T23:48:42.782Z,3.83
2024-03-13T23:51:11.624Z,3.20
2024-03-13T23:53:38.388Z,3.60
2024-03-13T23:56:05.718Z,3.17
2024-03-13T23:58:34.041Z,3.60
